Time,TemperatureF,DewpointF,PressureIn,WindDirection,WindDirectionDegrees,WindSpeedMPH,WindSpeedGustMPH,Humidity,HourlyPrecipIn,Conditions,Clouds,dailyrainin,SoftwareType,DateUTC
2013-04-05 00:02:00,35.0,27.0,-100.00,East,90,19.0,23.0,71,-99.99,,,0.00,,2013-04-05 06:02:00,
2013-04-05 00:12:00,35.0,26.0,-100.00,East,90,24.0,27.0,70,-99.99,,,0.00,,2013-04-05 06:12:00,
2013-04-05 00:22:00,35.0,26.0,-100.00,East,90,24.0,27.0,70,-99.99,,,0.00,,2013-04-05 06:22:00,
2013-04-05 00:32:00,35.0,26.0,-100.00,East,90,24.0,27.0,70,-99.99,,,0.00,,2013-04-05 06:32:00,
2013-04-05 00:42:00,35.0,26.0,-100.00,East,90,24.0,27.0,70,-99.99,,,0.00,,2013-04-05 06:42:00,
2013-04-05 00:52:00,35.0,26.0,-100.00,East,90,24.0,30.0,68,-99.99,,,0.00,,2013-04-05 06:52:00,
2013-04-05 01:02:00,35.0,26.0,-100.00,East,90,24.0,30.0,68,-99.99,,,0.00,,2013-04-05 07:02:00,
2013-04-05 01:12:00,36.0,26.0,-100.00,East,90,26.0,31.0,66,-99.99,,,0.00,,2013-04-05 07:12:00,
2013-04-05 01:22:00,36.0,26.0,-100.00,East,90,26.0,31.0,66,-99.99,,,0.00,,2013-04-05 07:22:00,
2013-04-05 01:32:00,36.0,26.0,-100.00,East,90,26.0,29.0,65,-99.99,,,0.00,,2013-04-05 07:32:00,
2013-04-05 01:42:00,36.0,26.0,-100.00,East,90,26.0,29.0,65,-99.99,,,0.00,,2013-04-05 07:42:00,
2013-04-05 01:52:00,36.0,25.0,-100.00,East,95,24.0,27.0,64,-99.99,,,0.00,,2013-04-05 07:52:00,
2013-04-05 02:02:00,36.0,25.0,-100.00,East,95,24.0,27.0,64,-99.99,,,0.00,,2013-04-05 08:02:00,
2013-04-05 02:13:00,36.0,25.0,-100.00,ESE,105,22.0,26.0,62,-99.99,,,0.00,,2013-04-05 08:13:00,
2013-04-05 02:22:00,36.0,25.0,-100.00,ESE,105,22.0,26.0,62,-99.99,,,0.00,,2013-04-05 08:22:00,
2013-04-05 02:32:00,36.0,24.0,-100.00,East,100,24.0,28.0,62,-99.99,,,0.00,,2013-04-05 08:32:00,
2013-04-05 02:43:00,36.0,24.0,-100.00,East,100,24.0,28.0,62,-99.99,,,0.00,,2013-04-05 08:43:00,
2013-04-05 02:52:00,36.0,24.0,-100.00,East,95,20.0,22.0,61,-99.99,,,0.00,,2013-04-05 08:52:00,
2013-04-05 03:02:00,36.0,24.0,-100.00,East,95,20.0,22.0,61,-99.99,,,0.00,,2013-04-05 09:02:00,
2013-04-05 03:12:00,34.0,24.0,-100.00,East,85,21.0,24.0,66,-99.99,,,0.00,,2013-04-05 09:12:00,
2013-04-05 03:22:00,34.0,24.0,-100.00,East,85,21.0,24.0,66,-99.99,,,0.00,,2013-04-05 09:22:00,
2013-04-05 03:33:00,34.0,24.0,-100.00,East,85,21.0,24.0,66,-99.99,,,0.00,,2013-04-05 09:33:00,
2013-04-05 03:42:00,34.0,24.0,-100.00,East,85,21.0,24.0,66,-99.99,,,0.00,,2013-04-05 09:42:00,
2013-04-05 03:52:00,35.0,24.0,-100.00,East,85,19.0,24.0,65,-99.99,,,-99.99,,2013-04-05 09:52:00,
2013-04-05 04:03:00,35.0,24.0,-100.00,East,85,19.0,24.0,65,-99.99,,,-99.99,,2013-04-05 10:03:00,
2013-04-05 04:13:00,35.0,23.0,-100.00,East,90,26.0,31.0,61,-99.99,,,-99.99,,2013-04-05 10:13:00,
2013-04-05 04:23:00,35.0,23.0,-100.00,East,90,26.0,31.0,61,-99.99,,,-99.99,,2013-04-05 10:23:00,
2013-04-05 04:33:00,34.0,22.0,-100.00,East,95,22.0,25.0,61,-99.99,,,-99.99,,2013-04-05 10:33:00,
2013-04-05 04:42:00,34.0,22.0,-100.00,East,95,22.0,25.0,61,-99.99,,,-99.99,,2013-04-05 10:42:00,
2013-04-05 04:52:00,34.0,22.0,-100.00,East,95,25.0,30.0,60,-99.99,,,-99.99,,2013-04-05 10:52:00,
2013-04-05 05:02:00,34.0,22.0,-100.00,East,95,25.0,30.0,60,-99.99,,,-99.99,,2013-04-05 11:02:00,
2013-04-05 05:13:00,34.0,22.0,-100.00,East,85,24.0,27.0,61,-99.99,,,-99.99,,2013-04-05 11:13:00,
2013-04-05 05:22:00,34.0,22.0,-100.00,East,85,24.0,27.0,61,-99.99,,,-99.99,,2013-04-05 11:22:00,
2013-04-05 05:33:00,34.0,22.0,-100.00,East,90,26.0,29.0,62,-99.99,,,-99.99,,2013-04-05 11:33:00,
2013-04-05 05:42:00,34.0,22.0,-100.00,East,90,26.0,29.0,62,-99.99,,,-99.99,,2013-04-05 11:42:00,
2013-04-05 05:52:00,33.0,22.0,-100.00,East,95,23.0,28.0,62,-99.99,,,-99.99,,2013-04-05 11:52:00,
2013-04-05 06:02:00,33.0,22.0,-100.00,East,95,23.0,28.0,62,-99.99,,,-99.99,,2013-04-05 12:02:00,
2013-04-05 06:12:00,33.0,21.0,-100.00,East,100,26.0,29.0,62,-99.99,,,-99.99,,2013-04-05 12:12:00,
2013-04-05 06:22:00,33.0,21.0,-100.00,East,100,26.0,29.0,62,-99.99,,,-99.99,,2013-04-05 12:22:00,
2013-04-05 06:32:00,33.0,21.0,-100.00,East,100,26.0,29.0,62,-99.99,,,-99.99,,2013-04-05 12:32:00,
2013-04-05 06:42:00,33.0,21.0,-100.00,East,100,26.0,29.0,62,-99.99,,,-99.99,,2013-04-05 12:42:00,
2013-04-05 06:52:00,32.0,22.0,-100.00,East,100,24.0,26.0,64,-99.99,,,0.00,,2013-04-05 12:52:00,
2013-04-05 07:02:00,32.0,22.0,-100.00,East,100,24.0,26.0,64,-99.99,,,0.00,,2013-04-05 13:02:00,
2013-04-05 07:12:00,32.0,22.0,-100.00,East,100,27.0,31.0,67,-99.99,,,0.00,,2013-04-05 13:12:00,
2013-04-05 07:23:00,32.0,22.0,-100.00,East,100,27.0,31.0,67,-99.99,,,0.00,,2013-04-05 13:23:00,
2013-04-05 07:32:00,32.0,22.0,-100.00,East,95,29.0,33.0,67,-99.99,,,0.00,,2013-04-05 13:32:00,
2013-04-05 07:42:00,32.0,22.0,-100.00,East,95,29.0,33.0,67,-99.99,,,0.00,,2013-04-05 13:42:00,
2013-04-05 07:52:00,33.0,23.0,-100.00,East,100,29.0,35.0,68,-99.99,,,-99.99,,2013-04-05 13:52:00,
2013-04-05 08:03:00,33.0,23.0,-100.00,East,100,29.0,35.0,68,-99.99,,,-99.99,,2013-04-05 14:03:00,
2013-04-05 08:12:00,32.0,24.0,-100.00,ESE,120,22.0,27.0,71,-99.99,,,-99.99,,2013-04-05 14:12:00,
2013-04-05 08:23:00,32.0,24.0,-100.00,ESE,120,22.0,27.0,71,-99.99,,,-99.99,,2013-04-05 14:23:00,
2013-04-05 08:36:00,32.0,24.0,-100.00,ESE,115,29.0,33.0,71,-99.99,,,-99.99,,2013-04-05 14:36:00,
2013-04-05 08:43:00,32.0,24.0,-100.00,ESE,115,29.0,33.0,71,-99.99,,,-99.99,,2013-04-05 14:43:00,
2013-04-05 08:52:00,33.0,24.0,-100.00,ESE,115,24.0,29.0,70,-99.99,,,-99.99,,2013-04-05 14:52:00,
2013-04-05 09:02:00,33.0,24.0,-100.00,ESE,115,24.0,29.0,70,-99.99,,,-99.99,,2013-04-05 15:02:00,
2013-04-05 09:12:00,34.0,25.0,-100.00,ESE,110,19.0,25.0,67,-99.99,,,-99.99,,2013-04-05 15:12:00,
2013-04-05 09:23:00,34.0,25.0,-100.00,ESE,110,19.0,25.0,67,-99.99,,,-99.99,,2013-04-05 15:23:00,
2013-04-05 09:33:00,35.0,24.0,-100.00,ESE,110,22.0,24.0,66,-99.99,,,-99.99,,2013-04-05 15:33:00,
2013-04-05 09:43:00,35.0,24.0,-100.00,ESE,110,22.0,24.0,66,-99.99,,,-99.99,,2013-04-05 15:43:00,
2013-04-05 09:53:00,35.0,25.0,-100.00,ESE,115,20.0,24.0,65,-99.99,,,-99.99,,2013-04-05 15:53:00,
2013-04-05 10:02:00,35.0,25.0,-100.00,ESE,115,20.0,24.0,65,-99.99,,,-99.99,,2013-04-05 16:02:00,
2013-04-05 10:13:00,36.0,25.0,-100.00,ESE,110,22.0,24.0,62,-99.99,,,-99.99,,2013-04-05 16:13:00,
2013-04-05 10:23:00,36.0,25.0,-100.00,ESE,110,22.0,24.0,62,-99.99,,,-99.99,,2013-04-05 16:23:00,
2013-04-05 10:33:00,38.0,25.0,-100.00,ESE,115,24.0,28.0,59,-99.99,,,-99.99,,2013-04-05 16:33:00,
2013-04-05 10:42:00,38.0,25.0,-100.00,ESE,115,24.0,28.0,59,-99.99,,,-99.99,,2013-04-05 16:42:00,
2013-04-05 10:52:00,40.0,25.0,-100.00,ESE,120,27.0,29.0,56,-99.99,,,-99.99,,2013-04-05 16:52:00,
2013-04-05 11:03:00,40.0,25.0,-100.00,ESE,120,27.0,29.0,56,-99.99,,,-99.99,,2013-04-05 17:03:00,
2013-04-05 11:13:00,43.0,26.0,-100.00,ESE,110,22.0,24.0,51,-99.99,,,-99.99,,2013-04-05 17:13:00,
2013-04-05 11:23:00,43.0,26.0,-100.00,ESE,110,22.0,24.0,51,-99.99,,,-99.99,,2013-04-05 17:23:00,
2013-04-05 11:32:00,45.0,26.0,-100.00,ESE,120,19.0,21.0,48,-99.99,,,-99.99,,2013-04-05 17:32:00,
2013-04-05 11:45:00,45.0,26.0,-100.00,ESE,120,19.0,21.0,48,-99.99,,,-99.99,,2013-04-05 17:45:00,
2013-04-05 11:52:00,46.0,26.0,-100.00,SE,125,19.0,21.0,44,-99.99,,,-99.99,,2013-04-05 17:52:00,
2013-04-05 12:02:00,46.0,26.0,-100.00,SE,125,19.0,21.0,44,-99.99,,,-99.99,,2013-04-05 18:02:00,
2013-04-05 12:12:00,50.0,26.0,-100.00,SE,130,14.0,17.0,38,-99.99,,,-99.99,,2013-04-05 18:12:00,
2013-04-05 12:23:00,50.0,26.0,-100.00,SE,130,14.0,17.0,38,-99.99,,,-99.99,,2013-04-05 18:23:00,
2013-04-05 12:33:00,52.0,26.0,-100.00,SE,140,12.0,14.0,36,-99.99,,,-99.99,,2013-04-05 18:33:00,
2013-04-05 12:42:00,52.0,26.0,-100.00,SE,140,12.0,14.0,36,-99.99,,,-99.99,,2013-04-05 18:42:00,
2013-04-05 12:52:00,54.0,26.0,-100.00,SE,145,9.0,14.0,34,-99.99,,,-99.99,,2013-04-05 18:52:00,
2013-04-05 13:02:00,54.0,26.0,-100.00,SE,145,9.0,14.0,34,-99.99,,,-99.99,,2013-04-05 19:02:00,
2013-04-05 13:13:00,56.0,25.0,-100.00,South,170,14.0,17.0,30,-99.99,,,-99.99,,2013-04-05 19:13:00,
2013-04-05 13:23:00,56.0,25.0,-100.00,South,170,14.0,17.0,30,-99.99,,,-99.99,,2013-04-05 19:23:00,
2013-04-05 13:33:00,58.0,27.0,-100.00,South,185,7.0,9.0,30,-99.99,,,-99.99,,2013-04-05 19:33:00,
2013-04-05 13:42:00,58.0,27.0,-100.00,South,185,7.0,9.0,30,-99.99,,,-99.99,,2013-04-05 19:42:00,
2013-04-05 13:52:00,59.0,27.0,-100.00,South,170,10.0,11.0,29,-99.99,,,-99.99,,2013-04-05 19:52:00,
2013-04-05 14:02:00,59.0,27.0,-100.00,South,170,10.0,11.0,29,-99.99,,,-99.99,,2013-04-05 20:02:00,
2013-04-05 14:11:00,61.0,27.0,-100.00,South,190,8.0,9.0,28,-99.99,,,-99.99,,2013-04-05 20:11:00,
2013-04-05 14:22:00,61.0,27.0,-100.00,South,190,8.0,9.0,28,-99.99,,,-99.99,,2013-04-05 20:22:00,
2013-04-05 16:52:00,45.0,44.0,-100.00,NNE,25,8.0,9.0,99,-99.99,,,0.00,,2013-04-05 22:52:00,
2013-04-05 17:02:00,45.0,44.0,-100.00,NNE,25,8.0,9.0,99,-99.99,,,0.00,,2013-04-05 23:02:00,
2013-04-05 18:13:00,61.0,28.0,-100.00,North,0,8.0,9.0,29,-99.99,,,0.00,,2013-04-06 00:13:00,
2013-04-05 18:23:00,61.0,28.0,-100.00,North,0,8.0,9.0,29,-99.99,,,0.00,,2013-04-06 00:23:00,
2013-04-05 18:33:00,61.0,28.0,-100.00,North,0,8.0,9.0,29,-99.99,,,0.00,,2013-04-06 00:33:00,
2013-04-05 18:42:00,61.0,28.0,-100.00,North,0,8.0,9.0,29,-99.99,,,0.00,,2013-04-06 00:42:00,
2013-04-05 19:13:00,59.0,28.0,-100.00,North,-999,0.0,0.0,31,-99.99,,,0.00,,2013-04-06 01:13:00,
2013-04-05 19:22:00,59.0,28.0,-100.00,North,-999,0.0,0.0,31,-99.99,,,0.00,,2013-04-06 01:22:00,
2013-04-05 19:32:00,54.0,33.0,-100.00,WSW,245,22.0,25.0,45,-99.99,,,0.00,,2013-04-06 01:32:00,
2013-04-05 19:43:00,54.0,33.0,-100.00,WSW,245,22.0,25.0,45,-99.99,,,0.00,,2013-04-06 01:43:00,
2013-04-05 19:52:00,50.0,45.0,-100.00,West,260,20.0,22.0,81,-99.99,,,0.00,,2013-04-06 01:52:00,
2013-04-05 20:02:00,50.0,45.0,-100.00,West,260,20.0,22.0,81,-99.99,,,0.00,,2013-04-06 02:02:00,
2013-04-05 20:12:00,50.0,45.0,-100.00,WSW,255,13.0,14.0,84,-99.99,,,0.00,,2013-04-06 02:12:00,
2013-04-05 20:22:00,50.0,45.0,-100.00,WSW,255,13.0,14.0,84,-99.99,,,0.00,,2013-04-06 02:22:00,
2013-04-05 20:32:00,50.0,45.0,-100.00,West,260,15.0,17.0,83,-99.99,,,0.00,,2013-04-06 02:32:00,
2013-04-05 20:42:00,50.0,45.0,-100.00,West,260,15.0,17.0,83,-99.99,,,0.00,,2013-04-06 02:42:00,
2013-04-05 20:52:00,49.0,45.0,-100.00,West,265,11.0,13.0,87,-99.99,,,0.00,,2013-04-06 02:52:00,
2013-04-05 21:02:00,49.0,45.0,-100.00,West,265,11.0,13.0,87,-99.99,,,0.00,,2013-04-06 03:02:00,
2013-04-05 21:12:00,48.0,44.0,-100.00,WSW,250,7.0,8.0,88,-99.99,,,0.00,,2013-04-06 03:12:00,
2013-04-05 21:22:00,48.0,44.0,-100.00,WSW,250,7.0,8.0,88,-99.99,,,0.00,,2013-04-06 03:22:00,
2013-04-05 21:43:00,48.0,45.0,-100.00,WNW,290,3.0,4.0,88,-99.99,,,0.00,,2013-04-06 03:43:00,
2013-04-05 21:53:00,47.0,44.0,-100.00,ESE,110,9.0,9.0,87,-99.99,,,0.00,,2013-04-06 03:53:00,
2013-04-05 22:03:00,47.0,44.0,-100.00,ESE,110,9.0,9.0,87,-99.99,,,0.00,,2013-04-06 04:03:00,
2013-04-05 22:14:00,47.0,43.0,-100.00,ESE,105,7.0,7.0,89,-99.99,,,0.00,,2013-04-06 04:14:00,
2013-04-05 22:23:00,47.0,43.0,-100.00,ESE,105,7.0,7.0,89,-99.99,,,0.00,,2013-04-06 04:23:00,
2013-04-05 22:33:00,46.0,44.0,-100.00,ESE,105,6.0,7.0,92,-99.99,,,0.00,,2013-04-06 04:33:00,
2013-04-05 22:42:00,46.0,44.0,-100.00,ESE,105,6.0,7.0,92,-99.99,,,0.00,,2013-04-06 04:42:00,
2013-04-05 22:52:00,46.0,43.0,-100.00,ESE,120,5.0,5.0,90,-99.99,,,0.00,,2013-04-06 04:52:00,
2013-04-05 23:02:00,46.0,43.0,-100.00,ESE,120,5.0,5.0,90,-99.99,,,0.00,,2013-04-06 05:02:00,
2013-04-05 23:13:00,47.0,43.0,-100.00,SSE,160,8.0,8.0,85,-99.99,,,0.00,,2013-04-06 05:13:00,
2013-04-05 23:22:00,47.0,43.0,-100.00,SSE,160,8.0,8.0,85,-99.99,,,0.00,,2013-04-06 05:22:00,
2013-04-05 23:32:00,47.0,43.0,-100.00,SSE,165,8.0,9.0,87,-99.99,,,0.00,,2013-04-06 05:32:00,
2013-04-05 23:42:00,47.0,43.0,-100.00,SSE,165,8.0,9.0,87,-99.99,,,0.00,,2013-04-06 05:42:00,
2013-04-05 23:52:00,46.0,42.0,-100.00,South,175,8.0,9.0,88,-99.99,,,0.00,,2013-04-06 05:52:00,